• Join FlightAware (Why Join?)
  • Login
  • US Flag 
09:41PM EDT


 

Airport Tracker/Info


-or-


 

Live Flight TrackerFlight Track Log ✈ N20AZ ✈ 10-May-2013 ✈ KSGJ - KCVC

Flight Track Log - Related Links

Times and Time Zones

All times are in EDT time to prevent confusion due to time zone crossing. See the N20AZ flight status page for this flight to view local times or setup timezone preferences in your user account.

Time Position Orientation Groundspeed Altitude Reporting Facility
EDT Latitude Longitude Course Direction KTS MPH feet Rate Location/Type
09:56AM 29.9819 -81.3769 306° West 115 132 1,200  Level Jacksonville Center
09:57AM 29.9925 -81.3936 306° West 122 140 1,400 480 Climbing Jacksonville Center
09:58AM 30.0181 -81.4269 312° West 123 142 2,000 480 Climbing Jacksonville Center
09:59AM 30.0475 -81.4528 323° Northwest 130 150 2,500 480 Climbing Jacksonville Center
10:00AM 30.0769 -81.4667 338° Northwest 130 150 3,000 480 Climbing Jacksonville Center
10:01AM 30.1083 -81.4881 329° Northwest 126 145 3,600 480 Climbing Jacksonville Center
10:02AM 30.1378 -81.5092 328° Northwest 134 154 4,000 480 Climbing Jacksonville Center
10:03AM 30.1736 -81.5303 333° Northwest 129 148 4,600 480 Climbing Jacksonville Center
10:04AM 30.2072 -81.5514 332° Northwest 136 157 5,100 480 Climbing Jacksonville Center
10:05AM 30.2389 -81.5725 330° Northwest 131 151 5,600 540 Climbing Jacksonville Center
10:06AM 30.2703 -81.5914 333° Northwest 132 152 6,200 540 Climbing Jacksonville Center
10:07AM 30.3039 -81.6150 329° Northwest 129 148 6,700 360 Climbing Jacksonville Center
10:08AM 30.3356 -81.6339 333° Northwest 128 147 7,000 120 Climbing Jacksonville Center
10:09AM 30.3711 -81.6575 330° Northwest 144 166 7,000  Level Jacksonville Center
10:10AM 30.4069 -81.6811 330° Northwest 145 167 7,100  Climbing Jacksonville Center
10:11AM 30.4425 -81.7047 330° Northwest 149 171 7,000 -60 Descending Jacksonville Center
10:12AM 30.4806 -81.7283 332° Northwest 156 180 7,000  Level Jacksonville Center
10:13AM 30.5225 -81.7567 330° Northwest 148 170 7,000  Level Jacksonville Center
10:14AM 30.5561 -81.7781 331° Northwest 151 174 7,000  Level Jacksonville Center
10:15AM 30.5981 -81.8042 332° Northwest 151 174 7,000  Level Jacksonville Center
10:16AM 30.6294 -81.8256 330° Northwest 151 174 7,000  Level Jacksonville Center
10:17AM 30.6714 -81.8517 332° Northwest 155 178 7,000  Level Jacksonville Center
10:18AM 30.7072 -81.8753 330° Northwest 152 175 7,000  Level Jacksonville Center
10:20AM 30.7722 -81.9206 329° Northwest 160 184 7,000  Level Jacksonville Center
10:21AM 30.8100 -81.9419 334° Northwest 160 184 7,000  Level Jacksonville Center
10:22AM 30.8478 -81.9683 329° Northwest 160 184 7,000  Level Jacksonville Center
10:23AM 30.8833 -81.9897 333° Northwest 160 184 7,000  Level Jacksonville Center
10:24AM 30.9192 -82.0161 328° Northwest 160 184 7,000  Level Jacksonville Center
10:25AM 30.9569 -82.0397 332° Northwest 160 184 7,000  Level Jacksonville Center
10:26AM 30.9947 -82.0636 332° Northwest 155 178 7,000  Level Jacksonville Center
10:27AM 31.0303 -82.0878 330° Northwest 155 178 7,000  Level Jacksonville Center
10:28AM 31.0681 -82.1117 332° Northwest 155 178 7,000 -120 Level Jacksonville Center
10:29AM 31.1017 -82.1381 326° Northwest 150 173 6,800 -300 Descending Jacksonville Center
10:30AM 31.1433 -82.1619 334° Northwest 150 173 6,400 -420 Descending Jacksonville Center
10:31AM 31.1833 -82.1908 328° Northwest 156 180 6,000 -180 Descending Jacksonville Center
10:32AM 31.2231 -82.2147 333° Northwest 162 186 6,100  Climbing Jacksonville Center
10:33AM 31.2650 -82.2411 332° Northwest 162 186 6,000 -60 Descending Jacksonville Center
10:34AM 31.3006 -82.2678 327° Northwest 162 186 6,000  Level Jacksonville Center
10:35AM 31.3403 -82.2917 333° Northwest 162 186 6,000  Level Jacksonville Center
10:36AM 31.3781 -82.3133 334° Northwest 162 186 6,000  Level Jacksonville Center
10:37AM 31.4158 -82.3375 331° Northwest 157 181 6,000  Level Jacksonville Center
10:38AM 31.4514 -82.3642 327° Northwest 162 186 6,000  Level Jacksonville Center
10:39AM 31.4892 -82.3908 329° Northwest 162 186 6,000  Level Jacksonville Center
10:40AM 31.5289 -82.4150 333° Northwest 162 186 6,000  Level Jacksonville Center
10:41AM 31.5706 -82.4389 334° Northwest 162 186 6,000  Level Jacksonville Center
10:42AM 31.6064 -82.4656 328° Northwest 162 186 6,000  Level Jacksonville Center
10:43AM 31.6461 -82.4922 330° Northwest 162 186 6,000  Level Jacksonville Center
10:44AM 31.6836 -82.5167 331° Northwest 162 186 6,000  Level Jacksonville Center
10:45AM 31.7192 -82.5433 327° Northwest 162 186 6,000  Level Jacksonville Center
10:46AM 31.7611 -82.5675 334° Northwest 162 186 6,000  Level Jacksonville Center
10:47AM 31.7967 -82.5919 330° Northwest 162 186 6,000  Level Jacksonville Center
10:48AM 31.8342 -82.6161 331° Northwest 162 186 6,000  Level Jacksonville Center
10:49AM 31.8719 -82.6431 329° Northwest 162 186 6,000  Level Jacksonville Center
10:50AM 31.9094 -82.6675 331° Northwest 162 186 6,000  Level Jacksonville Center
10:51AM 31.9450 -82.6942 328° Northwest 162 186 6,000  Level Jacksonville Center
10:52AM 31.9869 -82.7211 331° Northwest 162 186 6,000  Level Jacksonville Center
10:53AM 32.0225 -82.7456 330° Northwest 162 186 6,000  Level Jacksonville Center
10:54AM 32.0622 -82.7725 330° Northwest 162 186 6,000  Level Jacksonville Center
10:55AM 32.1017 -82.7969 332° Northwest 162 186 6,000  Level Jacksonville Center
10:56AM 32.1394 -82.8214 331° Northwest 162 186 6,000  Level Jacksonville Center
10:58AM 32.2333 -82.8833 331° Northwest 160 184 6,000  Level Atlanta TRACON
10:59AM 32.2667 -82.9000 337° Northwest 160 184 6,000  Level Atlanta TRACON
11:00AM 32.3000 -82.9333 320° Northwest 159 183 6,000  Level Atlanta TRACON
11:01AM 32.3333 -82.9500 337° Northwest 159 183 6,000  Level Atlanta TRACON
11:02AM 32.3667 -82.9833 320° Northwest 159 183 6,000  Level Atlanta TRACON
11:03AM 32.4167 -83.0000 344° North 158 182 6,000  Level Atlanta TRACON
11:04AM 32.4500 -83.0333 320° Northwest 154 177 6,000  Level Atlanta TRACON
11:05AM 32.4833 -83.0500 337° Northwest 158 182 6,000  Level Atlanta TRACON
11:06AM 32.5167 -83.0833 320° Northwest 159 183 6,000  Level Atlanta TRACON
11:07AM 32.5500 -83.1000 337° Northwest 159 183 6,000  Level Atlanta TRACON
11:08AM 32.6000 -83.1333 331° Northwest 158 182 6,000  Level Atlanta TRACON
11:09AM 32.6333 -83.1500 337° Northwest 156 180 6,000  Level Atlanta TRACON
11:10AM 32.6667 -83.1833 320° Northwest 155 178 6,000  Level Atlanta TRACON
11:11AM 32.7000 -83.2000 337° Northwest 155 178 6,000  Level Atlanta TRACON
11:12AM 32.7500 -83.2333 331° Northwest 155 178 6,000  Level Atlanta TRACON
11:13AM 32.7833 -83.2667 320° Northwest 156 180 6,000  Level Atlanta TRACON
11:14AM 32.8167 -83.2833 337° Northwest 155 178 6,000  Level Atlanta TRACON
11:15AM 32.8500 -83.3000 337° Northwest 158 182 6,000  Level Atlanta TRACON
11:16AM 32.8833 -83.3333 320° Northwest 157 181 6,000  Level Atlanta TRACON
11:17AM 32.9333 -83.3667 331° Northwest 154 177 6,000  Level Atlanta TRACON
11:18AM 32.9667 -83.3833 337° Northwest 157 181 6,000  Level Atlanta TRACON
11:19AM 33.0000 -83.4167 320° Northwest 154 177 6,000  Level Atlanta TRACON
11:20AM 33.0333 -83.4333 337° Northwest 154 177 6,000  Level Atlanta TRACON
11:21AM 33.0667 -83.4667 320° Northwest 156 180 6,000  Level Atlanta TRACON
11:22AM 33.1000 -83.4833 337° Northwest 153 176 6,000  Level Atlanta TRACON
11:23AM 33.1500 -83.5167 331° Northwest 154 177 6,000  Level Atlanta TRACON
11:24AM 33.1833 -83.5333 337° Northwest 156 180 6,000  Level Atlanta TRACON
11:25AM 33.2167 -83.5667 320° Northwest 157 181 6,000  Level Atlanta TRACON
11:26AM 33.2667 -83.5833 344° North 152 175 6,000  Level Atlanta TRACON
11:27AM 33.3000 -83.6167 320° Northwest 159 183 6,000  Level Atlanta TRACON
11:28AM 33.3333 -83.6333 337° Northwest 157 181 6,000  Level Atlanta TRACON
11:29AM 33.3667 -83.6667 320° Northwest 157 181 6,000 -60 Level Atlanta TRACON
11:30AM 33.4000 -83.6833 337° Northwest 159 183 5,900 -360 Descending Atlanta TRACON
11:31AM 33.4500 -83.7167 331° Northwest 164 189 5,300 -720 Descending Atlanta TRACON
11:32AM 33.4833 -83.7500 320° Northwest 161 185 4,400 -900 Descending Atlanta TRACON
11:33AM 33.5167 -83.7667 337° Northwest 157 181 3,500 -1,020 Descending Atlanta TRACON